地図

経路データ

SID SEASON NUMBER BASIN SUBBASIN NAME ISO_TIME NATURE LAT LON WMO_WIND WMO_PRES WMO_AGENCY TRACK_TYPE DIST2LAND LANDFALL IFLAG USA_AGENCY USA_ATCF_ID USA_LAT USA_LON USA_RECORD USA_STATUS USA_WIND USA_PRES USA_SSHS USA_R34_NE USA_R34_SE USA_R34_SW USA_R34_NW USA_R50_NE USA_R50_SE USA_R50_SW USA_R50_NW USA_R64_NE USA_R64_SE USA_R64_SW USA_R64_NW USA_POCI USA_ROCI USA_RMW USA_EYE TOKYO_LAT TOKYO_LON TOKYO_GRADE TOKYO_WIND TOKYO_PRES TOKYO_R50_DIR TOKYO_R50_LONG TOKYO_R50_SHORT TOKYO_R30_DIR TOKYO_R30_LONG TOKYO_R30_SHORT TOKYO_LAND CMA_LAT CMA_LON CMA_CAT CMA_WIND CMA_PRES HKO_LAT HKO_LON HKO_CAT HKO_WIND HKO_PRES NEWDELHI_LAT NEWDELHI_LON NEWDELHI_GRADE NEWDELHI_WIND NEWDELHI_PRES NEWDELHI_CI NEWDELHI_DP NEWDELHI_POCI REUNION_LAT REUNION_LON REUNION_TYPE REUNION_WIND REUNION_PRES REUNION_TNUM REUNION_CI REUNION_RMW REUNION_R34_NE REUNION_R34_SE REUNION_R34_SW REUNION_R34_NW REUNION_R50_NE REUNION_R50_SE REUNION_R50_SW REUNION_R50_NW REUNION_R64_NE REUNION_R64_SE REUNION_R64_SW REUNION_R64_NW BOM_LAT BOM_LON BOM_TYPE BOM_WIND BOM_PRES BOM_TNUM BOM_CI BOM_RMW BOM_R34_NE BOM_R34_SE BOM_R34_SW BOM_R34_NW BOM_R50_NE BOM_R50_SE BOM_R50_SW BOM_R50_NW BOM_R64_NE BOM_R64_SE BOM_R64_SW BOM_R64_NW BOM_ROCI BOM_POCI BOM_EYE BOM_POS_METHOD BOM_PRES_METHOD NADI_LAT NADI_LON NADI_CAT NADI_WIND NADI_PRES WELLINGTON_LAT WELLINGTON_LON WELLINGTON_WIND WELLINGTON_PRES DS824_LAT DS824_LON DS824_STAGE DS824_WIND DS824_PRES TD9636_LAT TD9636_LON TD9636_STAGE TD9636_WIND TD9636_PRES TD9635_LAT TD9635_LON TD9635_WIND TD9635_PRES TD9635_ROCI NEUMANN_LAT NEUMANN_LON NEUMANN_CLASS NEUMANN_WIND NEUMANN_PRES MLC_LAT MLC_LON MLC_CLASS MLC_WIND MLC_PRES USA_GUST BOM_GUST BOM_GUST_PER REUNION_GUST REUNION_GUST_PER USA_SEAHGT USA_SEARAD_NE USA_SEARAD_SE USA_SEARAD_SW USA_SEARAD_NW STORM_SPEED STORM_DIR
1983285N09260 1983 72 EP MM TICO 1983-10-11 12:00:00 TS 8.50000 -100.400 25 hurdat_epa main 886 879 O_________O___ hurdat_epa EP191983 8.50000 -100.400 TD 25 -1 8.50000 -100.400 1 25 5 293
1983285N09260 1983 72 EP MM TICO 1983-10-11 15:00:00 TS 8.60502 -100.645 main 882 879 P_________P___ EP191983 8.61504 -100.652 TD 27 -1 8.57497 -100.623 1 26 5 291
1983285N09260 1983 72 EP MM TICO 1983-10-11 18:00:00 TS 8.68748 -100.889 30 hurdat_epa main 884 884 O_________P___ hurdat_epa EP191983 8.70000 -100.900 TD 30 -1 8.64991 -100.857 1 27 5 285
1983285N09260 1983 72 EP MM TICO 1983-10-11 21:00:00 TS 8.73808 -101.135 main 892 885 P_________P___ EP191983 8.74247 -101.143 TD 30 -1 8.72491 -101.113 1 28 5 283
1983285N09260 1983 72 EP MM TICO 1983-10-12 00:00:00 TS 8.80000 -101.400 30 hurdat_epa main 893 886 O_________O___ hurdat_epa EP191983 8.80000 -101.400 TD 30 -1 8.80000 -101.400 1 30 6 288
1983285N09260 1983 72 EP MM TICO 1983-10-12 03:00:00 TS 8.92121 -101.700 main 894 886 P_________P___ EP191983 8.93499 -101.692 TD 30 -1 8.87985 -101.722 1 30 7 294
1983285N09260 1983 72 EP MM TICO 1983-10-12 06:00:00 TS 9.07194 -102.013 30 hurdat_epa main 886 882 O_________P___ hurdat_epa EP191983 9.10000 -102.000 TD 30 -1 8.98775 -102.053 1 30 7 294
1983285N09260 1983 72 EP MM TICO 1983-10-12 09:00:00 TS 9.19733 -102.331 main 885 875 P_________P___ EP191983 9.21252 -102.323 TD 30 -1 9.15174 -102.357 1 30 7 300
1983285N09260 1983 72 EP MM TICO 1983-10-12 12:00:00 TS 9.40000 -102.600 30 hurdat_epa main 875 852 O_________O___ hurdat_epa EP191983 9.40000 -102.600 TD 30 -1 9.40000 -102.600 1 30 7 321
1983285N09260 1983 72 EP MM TICO 1983-10-12 15:00:00 TS 9.75152 -102.784 main 842 805 P_________P___ EP191983 9.74748 -102.795 TD 30 -1 9.76363 -102.752 1 31 9 341
1983285N09260 1983 72 EP MM TICO 1983-10-12 18:00:00 TS 10.2025 -102.885 30 hurdat_epa main 805 755 O_________P___ hurdat_epa EP191983 10.2000 -102.900 TD 30 -1 10.2099 -102.840 1 32 10 353
1983285N09260 1983 72 EP MM TICO 1983-10-12 21:00:00 TS 10.6947 -102.913 main 755 706 P_________P___ EP191983 10.6925 -102.923 TD 32 -1 10.7012 -102.883 1 33 10 359
1983285N09260 1983 72 EP MM TICO 1983-10-13 00:00:00 TS 11.2000 -102.900 35 hurdat_epa main 706 666 O_________O___ hurdat_epa EP191983 11.2000 -102.900 TS 35 0 11.2000 -102.900 2 35 10 0
1983285N09260 1983 72 EP MM TICO 1983-10-13 03:00:00 TS 11.6617 -102.905 main 655 613 P_________P___ EP191983 11.6575 -102.900 TS 35 0 11.6743 -102.922 2 36 9 0
1983285N09260 1983 72 EP MM TICO 1983-10-13 06:00:00 TS 12.1112 -102.906 35 hurdat_epa main 613 571 O_________P___ hurdat_epa EP191983 12.1000 -102.900 TS 35 0 12.1449 -102.923 2 37 9 1
1983285N09260 1983 72 EP MM TICO 1983-10-13 09:00:00 TS 12.5664 -102.903 main 560 518 P_________P___ EP191983 12.5575 -102.900 TS 37 0 12.5931 -102.912 2 38 9 2
1983285N09260 1983 72 EP MM TICO 1983-10-13 12:00:00 TS 13.0000 -102.900 40 hurdat_epa main 518 477 O_________O___ hurdat_epa EP191983 13.0000 -102.900 TS 40 0 13.0000 -102.900 2 40 9 1
1983285N09260 1983 72 EP MM TICO 1983-10-13 15:00:00 TS 13.4149 -102.898 main 477 446 P_________P___ EP191983 13.4375 -102.900 TS 42 0 13.3472 -102.892 2 43 8 0
1983285N09260 1983 72 EP MM TICO 1983-10-13 18:00:00 TS 13.7631 -102.896 45 hurdat_epa main 436 416 O_________P___ hurdat_epa EP191983 13.8000 -102.900 TS 45 0 13.6525 -102.885 2 47 6 3
1983285N09260 1983 72 EP MM TICO 1983-10-13 21:00:00 TS 13.9998 -102.896 main 416 396 P_________P___ EP191983 14.0225 -102.900 TS 50 0 13.9315 -102.886 2 51 4 359
1983285N09260 1983 72 EP MM TICO 1983-10-14 00:00:00 TS 14.2000 -102.900 55 hurdat_epa main 396 377 O_________O___ hurdat_epa EP191983 14.2000 -102.900 TS 55 0 14.2000 -102.900 2 55 5 0
1983285N09260 1983 72 EP MM TICO 1983-10-14 03:00:00 TS 14.4498 -102.895 main 377 348 P_________P___ EP191983 14.4350 -102.885 TS 57 0 14.4943 -102.923 2 60 5 358
1983285N09260 1983 72 EP MM TICO 1983-10-14 06:00:00 TS 14.7200 -102.916 60 hurdat_epa main 348 327 O_________P___ hurdat_epa EP191983 14.7000 -102.900 TS 60 0 14.7800 -102.963 2 65 6 351
1983285N09260 1983 72 EP MM TICO 1983-10-14 09:00:00 TS 15.0183 -102.994 main 327 303 P_________P___ EP191983 15.0075 -102.985 TS 67 1 15.0506 -103.020 2 70 6 343
1983285N09260 1983 72 EP MM TICO 1983-10-14 12:00:00 TS 15.3000 -103.100 75 hurdat_epa main 303 285 O_________O___ hurdat_epa EP191983 15.3000 -103.100 HU 75 1 15.3000 -103.100 3 75 5 339
1983285N09260 1983 72 EP MM TICO 1983-10-14 15:00:00 TS 15.5227 -103.194 main 285 267 P_________P___ EP191983 15.5150 -103.193 HU 77 1 15.5459 -103.199 3 75 5 335
1983285N09260 1983 72 EP MM TICO 1983-10-14 18:00:00 TS 15.7169 -103.305 80 hurdat_epa main 267 249 O_________P___ hurdat_epa EP191983 15.7000 -103.300 HU 80 1 15.7675 -103.320 3 75 5 330
1983285N09260 1983 72 EP MM TICO 1983-10-14 21:00:00 TS 15.9307 -103.446 main 249 232 P_________P___ EP191983 15.9225 -103.442 HU 77 1 15.9553 -103.456 3 75 5 324
1983285N09260 1983 72 EP MM TICO 1983-10-15 00:00:00 TS 16.1000 -103.600 75 hurdat_epa main 235 228 O_________O___ hurdat_epa EP191983 16.1000 -103.600 HU 75 1 16.1000 -103.600 4 75 4 310
1983285N09260 1983 72 EP MM TICO 1983-10-15 03:00:00 TS 16.1746 -103.747 main 228 228 P_________P___ EP191983 16.1725 -103.750 HU 75 1 16.1809 -103.739 4 76 3 290
1983285N09260 1983 72 EP MM TICO 1983-10-15 06:00:00 TS 16.2056 -103.896 75 hurdat_epa main 235 235 O_________P___ hurdat_epa EP191983 16.2000 -103.900 HU 75 1 16.2224 -103.885 4 77 3 284
1983285N09260 1983 72 EP MM TICO 1983-10-15 09:00:00 TS 16.2451 -104.047 main 239 232 P_________P___ EP191983 16.2425 -104.050 HU 77 1 16.2528 -104.039 4 78 3 288
1983285N09260 1983 72 EP MM TICO 1983-10-15 12:00:00 TS 16.3000 -104.200 80 hurdat_epa main 235 228 O_________O___ hurdat_epa EP191983 16.3000 -104.200 HU 80 1 16.3000 -104.200 4 80 3 297
1983285N09260 1983 72 EP MM TICO 1983-10-15 15:00:00 TS 16.3906 -104.345 main 228 222 P_________P___ EP191983 16.3850 -104.343 HU 80 1 16.4074 -104.352 4 80 4 306
1983285N09260 1983 72 EP MM TICO 1983-10-15 18:00:00 TS 16.5087 -104.503 80 hurdat_epa main 227 223 O_________P___ hurdat_epa EP191983 16.5000 -104.500 HU 80 1 16.5348 -104.513 4 80 4 308
1983285N09260 1983 72 EP MM TICO 1983-10-15 21:00:00 TS 16.6493 -104.687 main 228 217 P_________P___ EP191983 16.6425 -104.685 HU 80 1 16.6698 -104.692 4 80 5 308
1983285N09260 1983 72 EP MM TICO 1983-10-16 00:00:00 TS 16.8000 -104.900 80 hurdat_epa main 224 223 O_________O___ hurdat_epa EP191983 16.8000 -104.900 HU 80 1 16.8000 -104.900 4 80 5 305
1983285N09260 1983 72 EP MM TICO 1983-10-16 03:00:00 TS 16.9525 -105.135 main 223 223 P_________P___ EP191983 16.9650 -105.135 HU 77 1 16.9152 -105.134 4 80 6 300
1983285N09260 1983 72 EP MM TICO 1983-10-16 06:00:00 TS 17.0806 -105.399 75 hurdat_epa main 241 241 O_________P___ hurdat_epa EP191983 17.1000 -105.400 HU 75 1 17.0224 -105.398 4 80 6 291
1983285N09260 1983 72 EP MM TICO 1983-10-16 09:00:00 TS 17.1533 -105.680 main 243 243 P_________P___ EP191983 17.1649 -105.678 HU 77 1 17.1183 -105.687 4 80 6 282
1983285N09260 1983 72 EP MM TICO 1983-10-16 12:00:00 TS 17.2000 -106.000 80 hurdat_epa main 257 257 O_________O___ hurdat_epa EP191983 17.2000 -106.000 HU 80 1 17.2000 -106.000 4 80 7 279
1983285N09260 1983 72 EP MM TICO 1983-10-16 15:00:00 TS 17.2546 -106.380 main 271 271 P_________P___ EP191983 17.2501 -106.400 HU 87 2 17.2683 -106.320 4 85 7 278
1983285N09260 1983 72 EP MM TICO 1983-10-16 18:00:00 TS 17.3056 -106.766 95 hurdat_epa main 299 299 O_________P___ hurdat_epa EP191983 17.3000 -106.800 HU 95 2 17.3223 -106.663 4 90 7 279
1983285N09260 1983 72 EP MM TICO 1983-10-16 21:00:00 TS 17.3536 -107.070 main 314 314 P_________P___ EP191983 17.3497 -107.085 HU 97 3 17.3651 -107.024 4 95 6 279
1983285N09260 1983 72 EP MM TICO 1983-10-17 00:00:00 TS 17.4000 -107.400 100 hurdat_epa main 337 337 O_________O___ hurdat_epa EP191983 17.4000 -107.400 HU 100 3 17.4000 -107.400 4 100 8 277
1983285N09260 1983 72 EP MM TICO 1983-10-17 03:00:00 TS 17.4484 -107.876 main 375 368 P_________P___ EP191983 17.4578 -107.900 HU 95 2 17.4202 -107.806 4 100 9 275
1983285N09260 1983 72 EP MM TICO 1983-10-17 06:00:00 TS 17.4838 -108.356 90 hurdat_epa main 409 409 O_________P___ hurdat_epa EP191983 17.5000 -108.400 HU 90 2 17.4353 -108.223 4 100 8 273
1983285N09260 1983 72 EP MM TICO 1983-10-17 09:00:00 TS 17.4892 -108.699 main 434 434 P_________P___ EP191983 17.4998 -108.723 HU 95 2 17.4577 -108.628 4 100 6 272
1983285N09260 1983 72 EP MM TICO 1983-10-17 12:00:00 TS 17.5000 -109.000 100 hurdat_epa main 461 461 O_________O___ hurdat_epa EP191983 17.5000 -109.000 HU 100 3 17.5000 -109.000 4 100 6 274
1983285N09260 1983 72 EP MM TICO 1983-10-17 15:00:00 TS 17.5352 -109.360 main 496 496 P_________P___ EP191983 17.5276 -109.365 HU 100 3 17.5580 -109.343 4 100 7 280
1983285N09260 1983 72 EP MM TICO 1983-10-17 18:00:00 TS 17.6100 -109.687 100 hurdat_epa main 517 517 O_________P___ hurdat_epa EP191983 17.6000 -109.700 HU 100 3 17.6398 -109.647 4 100 6 290
1983285N09260 1983 72 EP MM TICO 1983-10-17 21:00:00 TS 17.7335 -109.923 main 529 529 P_________P___ EP191983 17.7274 -109.930 HU 100 3 17.7518 -109.903 4 100 5 306
1983285N09260 1983 72 EP MM TICO 1983-10-18 00:00:00 TS 17.9000 -110.100 100 hurdat_epa main 537 537 O_________O___ hurdat_epa EP191983 17.9000 -110.100 HU 100 3 17.9000 -110.100 4 100 5 316
1983285N09260 1983 72 EP MM TICO 1983-10-18 03:00:00 TS 18.0819 -110.280 main 537 516 P_________P___ EP191983 18.0850 -110.280 HU 102 3 18.0725 -110.281 4 102 5 324
1983285N09260 1983 72 EP MM TICO 1983-10-18 06:00:00 TS 18.2955 -110.400 105 hurdat_epa main 516 493 O_________P___ hurdat_epa EP191983 18.3000 -110.400 HU 105 3 18.2821 -110.399 4 105 5 341
1983285N09260 1983 72 EP MM TICO 1983-10-18 09:00:00 TS 18.5383 -110.439 main 493 460 P_________P___ EP191983 18.5425 -110.438 HU 107 3 18.5256 -110.443 4 107 5 357
1983285N09260 1983 72 EP MM TICO 1983-10-18 12:00:00 TS 18.8000 -110.400 110 hurdat_epa main 460 438 O_________O___ hurdat_epa EP191983 18.8000 -110.400 HU 110 3 18.8000 -110.400 4 110 5 10
1983285N09260 1983 72 EP MM TICO 1983-10-18 15:00:00 TS 19.0353 -110.345 main 437 403 P_________P___ EP191983 19.0274 -110.352 HU 107 3 19.0590 -110.325 4 111 6 21
1983285N09260 1983 72 EP MM TICO 1983-10-18 18:00:00 TS 19.3128 -110.189 105 hurdat_epa main 403 369 O_________P___ hurdat_epa EP191983 19.3000 -110.200 HU 105 3 19.3513 -110.158 4 112 8 33
1983285N09260 1983 72 EP MM TICO 1983-10-18 21:00:00 TS 19.6700 -109.915 main 357 314 P_________P___ EP191983 19.6623 -109.925 HU 110 3 19.6930 -109.887 4 113 10 40
1983285N09260 1983 72 EP MM TICO 1983-10-19 00:00:00 TS 20.1000 -109.500 115 hurdat_epa main 314 277 O_________O___ hurdat_epa EP191983 20.1000 -109.500 HU 115 4 20.1000 -109.500 4 115 13 45
1983285N09260 1983 72 EP MM TICO 1983-10-19 03:00:00 TS 20.5730 -108.957 main 270 247 P_________P___ EP191983 20.5701 -108.945 HU 112 3 20.5818 -108.992 4 113 15 48
1983285N09260 1983 72 EP MM TICO 1983-10-19 06:00:00 TS 21.1050 -108.319 110 hurdat_epa main 253 211 O_________P___ hurdat_epa EP191983 21.1000 -108.300 HU 110 3 21.1233 -108.386 4 112 16 47
1983285N09260 1983 72 EP MM TICO 1983-10-19 09:00:00 TS 21.6878 -107.675 main 211 113 P_________P___ EP191983 21.6847 -107.672 HU 110 3 21.7031 -107.712 4 111 17 46
1983285N09260 1983 72 EP MM TICO 1983-10-19 12:00:00 TS 22.3000 -107.000 110 hurdat_epa main 113 15 O_________O___ hurdat_epa EP191983 22.3000 -107.000 HU 110 3 22.3000 -107.000 4 110 18 47
1983285N09260 1983 72 EP MM TICO 1983-10-19 15:00:00 TS 22.9058 -106.269 main 15 0 P_____________ EP191983 22.9058 -106.269 HU 92 2 4 18 49
1983285N09260 1983 72 EP MM TICO 1983-10-19 18:00:00 ET 23.5000 -105.500 75 hurdat_epa main 0 O_____________ hurdat_epa EP191983 23.5000 -105.500 ET 75 -4 4 19 50

IBTrACS Databaseについて

本データベースは、米国NOAAが公開する1842年以降の世界の熱帯低気圧のベストトラックデータアーカイブInternational Best Track Archive for Climate Stewardship (IBTrACS)を、ウェブで閲覧しやすい形式に変換したものです。

最終更新日:2021-11-26